createdAt,value
2022-12-13T00:00:59.699Z,8.80
2022-12-13T00:03:29.656Z,9.17
2022-12-13T00:05:59.602Z,8.13
2022-12-13T00:08:29.553Z,8.63
2022-12-13T00:11:02.928Z,10.07
2022-12-13T00:13:36.479Z,8.70
2022-12-13T00:16:09.195Z,10.18
2022-12-13T00:18:39.217Z,9.27
2022-12-13T00:21:10.767Z,9.97
2022-12-13T00:23:40.805Z,8.13
2022-12-13T00:26:14.702Z,8.27
2022-12-13T00:28:49.350Z,8.33
2022-12-13T00:31:53.271Z,9.03
2022-12-13T00:34:10.285Z,7.43
2022-12-13T00:36:40.308Z,9.10
2022-12-13T00:39:12.896Z,9.73
2022-12-13T00:41:43.735Z,9.77
2022-12-13T00:44:18.906Z,9.43
2022-12-13T00:46:51.817Z,9.27
2022-12-13T00:49:21.924Z,8.13
2022-12-13T00:51:52.224Z,8.10
2022-12-13T00:54:22.184Z,10.33
2022-12-13T00:56:53.304Z,7.63
2022-12-13T00:59:25.879Z,9.10
2022-12-13T01:01:55.891Z,9.30
2022-12-13T01:04:25.794Z,6.90
2022-12-13T01:06:55.985Z,6.73
2022-12-13T01:09:31.064Z,8.77
2022-12-13T01:12:01.976Z,8.07
2022-12-13T01:14:37.002Z,8.80
2022-12-13T01:17:07.204Z,8.47
2022-12-13T01:19:37.460Z,9.67
2022-12-13T01:22:11.246Z,7.83
2022-12-13T01:24:41.402Z,9.20
2022-12-13T01:27:11.448Z,8.53
2022-12-13T01:29:44.023Z,7.63
2022-12-13T01:32:13.937Z,8.43
2022-12-13T01:34:43.866Z,8.20
2022-12-13T01:37:13.784Z,8.77
2022-12-13T01:39:43.877Z,7.30
2022-12-13T01:42:17.478Z,9.53
2022-12-13T01:45:07.054Z,6.13
2022-12-13T01:47:42.791Z,6.53
2022-12-13T01:50:16.558Z,5.90
2022-12-13T01:52:47.616Z,7.72
2022-12-13T01:55:22.852Z,7.43
2022-12-13T01:57:54.441Z,6.83
2022-12-13T02:00:28.443Z,7.33
2022-12-13T02:03:01.341Z,5.93
2022-12-13T02:05:37.278Z,8.07
2022-12-13T02:08:08.636Z,11.17
2022-12-13T02:10:38.772Z,8.53
2022-12-13T02:13:08.775Z,9.03
2022-12-13T02:15:50.481Z,8.17
2022-12-13T02:18:31.371Z,7.63
2022-12-13T02:21:21.363Z,8.50
2022-12-13T02:24:22.545Z,8.00
2022-12-13T02:27:04.436Z,8.10
2022-12-13T02:30:13.252Z,8.57
2022-12-13T02:32:58.825Z,5.27
2022-12-13T02:35:34.770Z,5.60
2022-12-13T02:38:11.643Z,7.20
2022-12-13T02:40:45.982Z,9.17
2022-12-13T02:45:53.984Z,4.83
2022-12-13T02:48:32.107Z,9.13
2022-12-13T02:51:05.073Z,8.83
2022-12-13T02:53:35.911Z,8.10
2022-12-13T02:56:05.827Z,8.03
2022-12-13T02:58:38.594Z,7.23
2022-12-13T03:01:28.581Z,8.57
2022-12-13T03:04:10.837Z,9.40
2022-12-13T03:06:49.122Z,8.50
2022-12-13T03:09:33.118Z,7.97
2022-12-13T03:12:29.181Z,7.30
2022-12-13T03:15:05.162Z,8.33
2022-12-13T03:17:41.265Z,9.00
2022-12-13T03:20:22.717Z,9.57
2022-12-13T03:22:53.448Z,6.63
2022-12-13T03:25:31.341Z,8.13
2022-12-13T03:28:03.049Z,9.03
2022-12-13T03:30:33.696Z,9.47
2022-12-13T03:33:04.333Z,7.43
2022-12-13T03:35:44.517Z,8.13
2022-12-13T03:38:21.834Z,7.27
2022-12-13T03:40:55.515Z,7.87
2022-12-13T03:43:25.996Z,7.50
2022-12-13T03:45:56.603Z,7.33
2022-12-13T03:48:26.996Z,8.27
2022-12-13T03:50:59.624Z,8.60
2022-12-13T03:53:33.686Z,7.70
2022-12-13T03:56:06.092Z,7.40
2022-12-13T03:58:38.416Z,8.43
2022-12-13T04:01:10.302Z,8.93
2022-12-13T04:03:41.561Z,7.97
2022-12-13T04:06:22.339Z,9.03
2022-12-13T04:08:54.590Z,8.00
2022-12-13T04:11:45.801Z,6.27
2022-12-13T04:14:22.860Z,6.83
2022-12-13T04:16:53.676Z,7.67
2022-12-13T04:19:24.235Z,7.67
2022-12-13T04:21:56.963Z,9.43
2022-12-13T04:24:31.579Z,8.70
2022-12-13T04:27:02.433Z,8.37
2022-12-13T04:29:34.134Z,7.83
2022-12-13T04:32:04.982Z,8.37
2022-12-13T04:34:37.600Z,8.10
2022-12-13T04:37:10.424Z,8.77
2022-12-13T04:39:41.114Z,7.70
2022-12-13T04:42:18.110Z,8.30
2022-12-13T04:44:49.762Z,6.87
2022-12-13T04:47:19.710Z,8.80
2022-12-13T04:49:49.617Z,7.13
2022-12-13T04:52:22.870Z,8.43
2022-12-13T04:54:55.621Z,7.15
2022-12-13T04:57:26.728Z,9.43
2022-12-13T04:59:56.651Z,6.17
2022-12-13T05:02:26.665Z,7.50
2022-12-13T05:04:56.621Z,7.03
2022-12-13T05:07:29.656Z,8.63
2022-12-13T05:09:59.607Z,7.83
2022-12-13T05:12:29.567Z,7.80
2022-12-13T05:14:59.490Z,8.27
2022-12-13T05:17:29.374Z,8.10
2022-12-13T05:19:59.304Z,6.30
2022-12-13T05:22:31.817Z,8.63
2022-12-13T05:25:01.725Z,8.00
2022-12-13T05:27:31.703Z,7.23
2022-12-13T05:30:03.369Z,7.80
2022-12-13T05:32:43.250Z,8.17
2022-12-13T05:35:21.852Z,9.30
2022-12-13T05:37:55.722Z,6.73
2022-12-13T05:40:25.943Z,8.83
2022-12-13T05:43:01.488Z,9.70
2022-12-13T05:45:32.839Z,8.40
2022-12-13T05:48:05.850Z,10.15
2022-12-13T05:50:35.849Z,9.60
2022-12-13T05:53:09.202Z,7.80
2022-12-13T05:55:42.596Z,7.57
2022-12-13T05:58:15.352Z,6.53
2022-12-13T06:00:53.250Z,8.90
2022-12-13T06:03:23.427Z,7.80
2022-12-13T06:05:53.460Z,6.57
2022-12-13T06:08:26.008Z,6.63
2022-12-13T06:11:10.148Z,7.13
2022-12-13T06:13:44.084Z,5.83
2022-12-13T06:16:23.244Z,7.37
2022-12-13T06:19:03.212Z,7.93
2022-12-13T06:21:43.394Z,8.07
2022-12-13T06:24:20.931Z,7.70
2022-12-13T06:26:51.089Z,6.07
2022-12-13T06:29:25.520Z,7.03
2022-12-13T06:32:01.906Z,7.80
2022-12-13T06:34:35.857Z,6.40
2022-12-13T06:37:08.529Z,6.57
2022-12-13T06:39:41.437Z,6.80
2022-12-13T06:42:22.356Z,4.47
2022-12-13T06:44:56.212Z,5.83
2022-12-13T06:47:32.042Z,6.82
2022-12-13T06:50:05.667Z,6.90
2022-12-13T06:52:36.060Z,6.80
2022-12-13T06:55:09.422Z,6.93
2022-12-13T06:57:40.718Z,6.20
2022-12-13T07:00:12.924Z,7.07
2022-12-13T07:02:42.982Z,6.53
2022-12-13T07:05:13.250Z,7.67
2022-12-13T07:07:43.119Z,6.07
2022-12-13T07:10:22.641Z,7.57
2022-12-13T07:12:53.115Z,6.90
2022-12-13T07:15:22.973Z,8.67
2022-12-13T07:17:54.072Z,9.70
2022-12-13T07:20:24.265Z,6.67
2022-12-13T07:22:58.727Z,6.67
2022-12-13T07:25:31.617Z,6.13
2022-12-13T07:28:03.290Z,5.63
2022-12-13T07:30:41.258Z,5.93
2022-12-13T07:33:12.520Z,5.97
2022-12-13T07:35:43.187Z,7.33
2022-12-13T07:38:14.510Z,6.80
2022-12-13T07:40:47.038Z,6.30
2022-12-13T07:43:18.933Z,7.05
2022-12-13T07:45:49.144Z,9.27
2022-12-13T07:48:19.050Z,11.70
2022-12-13T07:50:54.685Z,11.03
2022-12-13T07:53:25.161Z,8.70
2022-12-13T07:55:57.870Z,7.40
2022-12-13T07:58:29.762Z,8.37
2022-12-13T08:01:03.285Z,7.63
2022-12-13T08:03:33.592Z,8.77
2022-12-13T08:06:04.933Z,6.90
2022-12-13T08:08:35.989Z,9.73
2022-12-13T08:11:10.514Z,6.67
2022-12-13T08:13:40.941Z,7.83
2022-12-13T08:16:26.286Z,7.17
2022-12-13T08:19:01.597Z,7.60
2022-12-13T08:21:55.252Z,9.10
2022-12-13T08:24:26.434Z,9.00
2022-12-13T08:27:02.462Z,13.27
2022-12-13T08:29:35.809Z,11.27
2022-12-13T08:32:08.187Z,9.68
2022-12-13T08:34:38.439Z,14.40
2022-12-13T08:37:08.928Z,10.57
2022-12-13T08:39:40.521Z,12.03
2022-12-13T08:42:18.895Z,9.60
2022-12-13T08:44:51.251Z,8.53
2022-12-13T08:47:25.849Z,9.50
2022-12-13T08:50:02.108Z,8.52
2022-12-13T08:52:39.552Z,9.27
2022-12-13T08:55:12.571Z,8.17
2022-12-13T08:57:46.649Z,11.03
2022-12-13T09:00:19.249Z,11.48
2022-12-13T09:02:49.693Z,16.17
2022-12-13T09:05:32.257Z,14.87
2022-12-13T09:08:13.319Z,18.33
2022-12-13T09:11:11.522Z,16.57
2022-12-13T09:13:54.622Z,13.10
2022-12-13T09:16:36.165Z,8.60
2022-12-13T09:19:25.467Z,8.60
2022-12-13T09:22:02.884Z,8.77
2022-12-13T09:24:35.859Z,5.97
2022-12-13T09:27:09.736Z,9.43
2022-12-13T09:29:42.708Z,6.80
2022-12-13T09:32:12.986Z,8.73
2022-12-13T09:34:43.342Z,8.23
2022-12-13T09:37:23.184Z,9.48
2022-12-13T09:39:54.938Z,10.37
2022-12-13T09:42:30.523Z,9.40
2022-12-13T09:45:22.258Z,9.33
2022-12-13T09:48:01.317Z,9.40
2022-12-13T09:50:37.452Z,8.83
2022-12-13T09:53:11.958Z,9.50
2022-12-13T09:55:52.497Z,7.77
2022-12-13T09:58:24.985Z,7.33
2022-12-13T10:01:00.128Z,7.10
2022-12-13T10:03:30.559Z,7.47
2022-12-13T10:06:02.184Z,6.87
2022-12-13T10:08:35.849Z,5.83
2022-12-13T10:11:06.194Z,7.45
2022-12-13T10:13:41.718Z,6.97
2022-12-13T10:16:23.502Z,7.47
2022-12-13T10:18:54.403Z,6.90
2022-12-13T10:21:28.699Z,6.43
2022-12-13T10:24:24.049Z,7.93
2022-12-13T10:26:49.999Z,6.83
2022-12-13T10:29:20.309Z,8.80
2022-12-13T10:31:54.809Z,6.37
2022-12-13T10:34:27.304Z,7.27
2022-12-13T10:36:59.661Z,7.13
2022-12-13T10:39:42.191Z,6.43
2022-12-13T10:42:23.377Z,6.80
2022-12-13T10:45:11.967Z,5.43
2022-12-13T10:47:46.400Z,7.67
2022-12-13T10:52:50.343Z,6.37
2022-12-13T10:55:29.563Z,7.10
2022-12-13T10:58:01.826Z,6.83
2022-12-13T11:00:40.456Z,7.50
2022-12-13T11:03:16.700Z,6.93
2022-12-13T11:05:50.297Z,7.07
2022-12-13T11:08:26.634Z,6.35
2022-12-13T11:11:01.640Z,5.70
2022-12-13T11:16:08.667Z,5.50
2022-12-13T11:18:41.518Z,5.73
2022-12-13T11:21:14.194Z,5.50
2022-12-13T11:23:48.822Z,5.10
2022-12-13T11:26:24.608Z,7.03
2022-12-13T11:29:09.644Z,13.80
2022-12-13T11:34:26.676Z,5.10
2022-12-13T11:37:03.932Z,7.50
2022-12-13T11:39:35.411Z,9.47
2022-12-13T11:42:11.737Z,4.33
2022-12-13T11:44:48.211Z,5.30
2022-12-13T11:47:21.598Z,4.40
2022-12-13T11:49:55.191Z,5.20
2022-12-13T11:52:31.515Z,5.13
2022-12-13T11:55:03.653Z,4.50
2022-12-13T11:57:36.952Z,4.90
2022-12-13T12:00:13.335Z,4.83
2022-12-13T12:02:48.064Z,4.73
2022-12-13T12:05:28.461Z,4.60
2022-12-13T12:11:01.315Z,5.33
2022-12-13T12:13:33.716Z,5.93
2022-12-13T12:16:27.107Z,4.83
2022-12-13T12:19:01.669Z,4.10
2022-12-13T12:24:54.081Z,4.90
2022-12-13T12:27:33.707Z,4.30
2022-12-13T12:30:23.815Z,4.63
2022-12-13T12:33:01.374Z,3.83
2022-12-13T12:35:40.427Z,4.33
2022-12-13T12:38:32.507Z,3.95
2022-12-13T12:41:18.218Z,4.33
2022-12-13T12:43:53.649Z,3.73
2022-12-13T12:46:46.922Z,4.20
2022-12-13T12:50:01.738Z,3.73
2022-12-13T12:52:44.259Z,4.43
2022-12-13T12:55:22.537Z,4.87
2022-12-13T12:58:01.862Z,3.93
2022-12-13T13:00:39.036Z,4.37
2022-12-13T13:03:22.401Z,4.30
2022-12-13T13:06:01.961Z,3.72
2022-12-13T13:08:38.496Z,4.37
2022-12-13T13:11:24.481Z,4.57
2022-12-13T13:14:06.672Z,4.03
2022-12-13T13:16:39.593Z,4.20
2022-12-13T13:19:47.151Z,3.43
2022-12-13T13:22:33.851Z,3.63
2022-12-13T13:25:25.892Z,3.80
2022-12-13T13:28:07.118Z,4.47
2022-12-13T13:30:37.507Z,4.17
2022-12-13T13:33:07.754Z,4.87
2022-12-13T13:35:51.058Z,4.90
2022-12-13T13:38:31.811Z,3.83
2022-12-13T13:41:02.118Z,3.50
2022-12-13T13:43:35.315Z,4.03
2022-12-13T13:46:13.983Z,4.40
2022-12-13T13:48:56.573Z,4.57
2022-12-13T13:52:08.791Z,4.03
2022-12-13T13:55:08.863Z,3.37
2022-12-13T13:58:21.966Z,3.83
2022-12-13T14:01:05.194Z,3.07
2022-12-13T14:04:01.748Z,3.22
2022-12-13T14:06:51.000Z,3.10
2022-12-13T14:09:50.914Z,3.73
2022-12-13T14:12:36.279Z,2.53
2022-12-13T14:15:42.371Z,3.67
2022-12-13T14:18:45.852Z,4.17
2022-12-13T14:21:22.884Z,3.60
2022-12-13T14:24:03.453Z,3.30
2022-12-13T14:26:41.413Z,4.13
2022-12-13T14:29:17.257Z,5.57
2022-12-13T14:31:49.744Z,5.77
2022-12-13T14:34:25.682Z,5.60
2022-12-13T14:37:02.263Z,5.63
2022-12-13T14:39:34.737Z,6.10
2022-12-13T14:42:20.584Z,6.67
2022-12-13T14:44:50.696Z,6.47
2022-12-13T14:47:21.679Z,7.03
2022-12-13T14:49:57.864Z,7.87
2022-12-13T14:52:31.329Z,8.43
2022-12-13T14:55:04.629Z,7.13
2022-12-13T14:57:35.486Z,8.00
2022-12-13T15:00:23.981Z,6.13
2022-12-13T15:02:56.051Z,6.03
2022-12-13T15:05:35.422Z,5.33
2022-12-13T15:08:10.444Z,5.53
2022-12-13T15:10:48.470Z,6.40
2022-12-13T15:13:29.545Z,6.73
2022-12-13T15:16:10.698Z,6.97
2022-12-13T15:18:50.412Z,6.20
2022-12-13T15:21:28.411Z,4.63
2022-12-13T15:24:02.747Z,4.70
2022-12-13T15:26:38.865Z,5.40
2022-12-13T15:29:11.019Z,5.23
2022-12-13T15:31:41.286Z,3.60
2022-12-13T15:34:37.518Z,3.67
2022-12-13T15:37:29.089Z,4.97
2022-12-13T15:40:03.759Z,5.63
2022-12-13T15:42:36.062Z,5.40
2022-12-13T15:45:07.912Z,5.20
2022-12-13T15:47:38.068Z,4.97
2022-12-13T15:50:09.228Z,4.67
2022-12-13T15:52:44.473Z,5.43
2022-12-13T15:55:35.409Z,4.73
2022-12-13T15:58:05.810Z,3.60
2022-12-13T16:00:38.153Z,4.70
2022-12-13T16:03:14.555Z,4.07
2022-12-13T16:05:51.372Z,6.03
2022-12-13T16:08:29.271Z,6.33
2022-12-13T16:11:00.215Z,7.77
2022-12-13T16:13:32.679Z,6.00
2022-12-13T16:16:09.539Z,8.20
2022-12-13T16:18:48.862Z,8.37
2022-12-13T16:21:19.327Z,8.03
2022-12-13T16:23:51.905Z,7.67
2022-12-13T16:26:27.333Z,7.97
2022-12-13T16:28:58.709Z,7.97
2022-12-13T16:31:35.622Z,8.93
2022-12-13T16:34:07.115Z,10.07
2022-12-13T16:39:27.735Z,8.53
2022-12-13T16:41:58.042Z,6.18
2022-12-13T16:44:31.574Z,6.00
2022-12-13T16:47:15.327Z,8.10
2022-12-13T16:49:50.135Z,6.13
2022-12-13T16:52:22.059Z,7.93
2022-12-13T16:54:54.943Z,6.50
2022-12-13T16:57:25.185Z,10.77
2022-12-13T16:59:55.442Z,9.57
2022-12-13T17:02:25.682Z,10.87
2022-12-13T17:04:55.728Z,13.33
2022-12-13T17:07:25.821Z,13.73
2022-12-13T17:09:59.235Z,9.43
2022-12-13T17:12:29.557Z,8.55
2022-12-13T17:15:00.008Z,6.07
2022-12-13T17:17:30.355Z,6.77
2022-12-13T17:20:01.325Z,7.47
2022-12-13T17:22:32.213Z,7.43
2022-12-13T17:25:05.019Z,9.40
2022-12-13T17:27:36.534Z,5.23
2022-12-13T17:30:08.438Z,6.53
2022-12-13T17:32:38.792Z,4.63
2022-12-13T17:35:14.753Z,6.27
2022-12-13T17:37:47.793Z,9.03
2022-12-13T17:40:20.528Z,8.27
2022-12-13T17:42:52.457Z,9.33
2022-12-13T17:45:23.420Z,10.33
2022-12-13T17:47:53.667Z,7.90
2022-12-13T17:50:23.906Z,7.47
2022-12-13T17:52:54.170Z,8.10
2022-12-13T17:55:26.788Z,7.33
2022-12-13T17:58:04.139Z,10.33
2022-12-13T18:00:34.622Z,7.87
2022-12-13T18:03:04.665Z,4.57
2022-12-13T18:05:36.914Z,5.10
2022-12-13T18:08:07.230Z,4.63
2022-12-13T18:10:40.081Z,5.93
2022-12-13T18:13:10.360Z,4.40
2022-12-13T18:15:40.594Z,4.43
2022-12-13T18:18:12.484Z,4.33
2022-12-13T18:20:43.741Z,5.53
2022-12-13T18:23:13.999Z,4.83
2022-12-13T18:25:50.959Z,6.00
2022-12-13T18:28:21.191Z,6.77
2022-12-13T18:30:51.590Z,8.97
2022-12-13T18:33:25.051Z,6.00
2022-12-13T18:35:55.412Z,7.77
2022-12-13T18:38:30.389Z,9.80
2022-12-13T18:41:12.552Z,7.00
2022-12-13T18:43:43.010Z,8.53
2022-12-13T18:46:14.322Z,7.40
2022-12-13T18:48:44.994Z,7.00
2022-12-13T18:51:15.325Z,11.03
2022-12-13T18:53:45.399Z,14.37
2022-12-13T18:56:19.587Z,11.80
2022-12-13T18:58:50.970Z,9.73
2022-12-13T19:01:22.860Z,10.20
2022-12-13T19:03:53.762Z,7.07
2022-12-13T19:06:25.214Z,7.10
2022-12-13T19:08:56.506Z,11.83
2022-12-13T19:11:30.613Z,11.23
2022-12-13T19:14:00.677Z,20.48
2022-12-13T19:16:30.824Z,8.27
2022-12-13T19:19:00.935Z,6.60
2022-12-13T19:21:30.930Z,4.57
2022-12-13T19:24:01.560Z,4.37
2022-12-13T19:26:34.511Z,6.07
2022-12-13T19:29:05.906Z,4.88
2022-12-13T19:31:36.428Z,5.43
2022-12-13T19:34:06.699Z,3.83
2022-12-13T19:36:36.806Z,4.63
2022-12-13T19:39:07.432Z,5.97
2022-12-13T19:41:40.264Z,5.70
2022-12-13T19:44:10.546Z,5.23
2022-12-13T19:46:40.691Z,4.37
2022-12-13T19:49:12.475Z,4.80
2022-12-13T19:51:42.775Z,4.40
2022-12-13T19:54:13.745Z,4.77
2022-12-13T19:56:46.595Z,5.37
2022-12-13T19:59:17.501Z,4.67
2022-12-13T20:01:48.899Z,5.20
2022-12-13T20:04:19.216Z,5.30
2022-12-13T20:06:49.194Z,3.90
2022-12-13T20:09:19.199Z,5.43
2022-12-13T20:11:52.045Z,5.37
2022-12-13T20:14:22.368Z,4.60
2022-12-13T20:16:52.581Z,4.80
2022-12-13T20:21:46.161Z,4.80
2022-12-13T20:24:16.145Z,6.70
2022-12-13T20:26:46.189Z,4.93
2022-12-13T20:29:19.297Z,4.70
2022-12-13T20:31:49.538Z,4.50
2022-12-13T20:34:19.942Z,5.43
2022-12-13T20:36:52.583Z,5.33
2022-12-13T20:39:23.472Z,6.23
2022-12-13T20:41:53.687Z,5.90
2022-12-13T20:44:24.148Z,5.20
2022-12-13T20:46:54.530Z,5.93
2022-12-13T20:49:24.607Z,5.17
2022-12-13T20:51:57.490Z,4.70
2022-12-13T20:54:27.809Z,5.97
2022-12-13T20:56:58.070Z,3.80
2022-12-13T20:59:28.377Z,5.27
2022-12-13T21:01:58.851Z,6.40
2022-12-13T21:04:28.957Z,4.33
2022-12-13T21:07:04.082Z,5.67
2022-12-13T21:09:35.012Z,5.17
2022-12-13T21:12:05.243Z,5.40
2022-12-13T21:14:36.832Z,5.20
2022-12-13T21:17:09.827Z,5.07
2022-12-13T21:19:41.546Z,5.90
2022-12-13T21:22:21.844Z,4.73
2022-12-13T21:24:52.156Z,4.07
2022-12-13T21:27:22.614Z,4.87
2022-12-13T21:29:52.867Z,5.87
2022-12-13T21:32:23.052Z,6.47
2022-12-13T21:34:53.237Z,4.13
2022-12-13T21:37:26.092Z,4.70
2022-12-13T21:39:56.819Z,4.77
2022-12-13T21:42:27.049Z,4.53
2022-12-13T21:45:01.985Z,5.43
2022-12-13T21:47:32.631Z,4.40
2022-12-13T21:50:03.527Z,3.93
2022-12-13T21:52:36.382Z,4.03
2022-12-13T21:55:30.507Z,4.63
2022-12-13T21:58:09.352Z,4.80
2022-12-13T22:00:40.330Z,4.67
2022-12-13T22:03:10.533Z,4.90
2022-12-13T22:05:40.778Z,5.60
2022-12-13T22:08:13.605Z,7.27
2022-12-13T22:10:56.111Z,5.93
2022-12-13T22:13:26.334Z,4.37
2022-12-13T22:15:56.571Z,5.03
2022-12-13T22:18:27.061Z,4.80
2022-12-13T22:21:00.841Z,4.00
2022-12-13T22:23:33.773Z,5.10
2022-12-13T22:26:08.735Z,5.10
2022-12-13T22:28:38.978Z,4.33
2022-12-13T22:31:09.466Z,4.30
2022-12-13T22:33:39.705Z,4.57
2022-12-13T22:36:10.219Z,5.53
2022-12-13T22:38:43.035Z,5.03
2022-12-13T22:41:16.145Z,5.73
2022-12-13T22:43:46.875Z,4.77
2022-12-13T22:46:19.853Z,6.63
2022-12-13T22:48:51.859Z,4.90
2022-12-13T22:51:22.661Z,5.27
2022-12-13T22:53:55.530Z,5.97
2022-12-13T22:56:26.341Z,6.23
2022-12-13T22:58:57.243Z,5.30
2022-12-13T23:01:28.386Z,4.53
2022-12-13T23:03:58.594Z,6.13
2022-12-13T23:06:30.991Z,6.17
2022-12-13T23:09:05.180Z,6.27
2022-12-13T23:11:48.084Z,7.78
2022-12-13T23:14:21.117Z,7.57
2022-12-13T23:16:53.284Z,7.83
2022-12-13T23:22:13.889Z,5.80
2022-12-13T23:24:46.758Z,6.17
2022-12-13T23:27:17.053Z,6.33
2022-12-13T23:29:47.637Z,4.30
2022-12-13T23:32:17.812Z,5.00
2022-12-13T23:34:48.079Z,6.50
2022-12-13T23:37:18.335Z,5.70
2022-12-13T23:39:51.794Z,5.60
2022-12-13T23:42:22.114Z,4.77
2022-12-13T23:44:52.369Z,6.33
2022-12-13T23:47:22.587Z,5.80
2022-12-13T23:49:52.981Z,5.33
2022-12-13T23:52:23.272Z,6.53
2022-12-13T23:54:56.093Z,6.47
2022-12-13T23:57:26.461Z,5.40
2022-12-13T23:59:56.667Z,4.93
